createdAt,value
2019-04-01T00:00:42.663Z,1.67
2019-04-01T00:03:13.227Z,1.70
2019-04-01T00:05:44.015Z,1.80
2019-04-01T00:08:14.598Z,1.77
2019-04-01T00:10:46.244Z,1.60
2019-04-01T00:13:19.492Z,1.70
2019-04-01T00:15:51.785Z,1.53
2019-04-01T00:18:22.364Z,2.10
2019-04-01T00:20:53.035Z,1.80
2019-04-01T00:23:23.611Z,2.10
2019-04-01T00:25:54.189Z,1.60
2019-04-01T00:28:24.762Z,1.70
2019-04-01T00:30:55.454Z,1.17
2019-04-01T00:33:27.188Z,1.50
2019-04-01T00:36:01.963Z,1.60
2019-04-01T00:38:32.577Z,1.60
2019-04-01T00:41:05.346Z,1.70
2019-04-01T00:43:40.412Z,1.53
2019-04-01T00:46:12.422Z,1.70
2019-04-01T00:48:43.068Z,1.77
2019-04-01T00:51:13.672Z,1.67
2019-04-01T00:53:44.261Z,1.77
2019-04-01T00:56:15.110Z,1.50
2019-04-01T00:59:03.456Z,1.90
2019-04-01T01:01:34.050Z,1.97
2019-04-01T01:04:04.621Z,2.07
2019-04-01T01:06:35.614Z,2.00
2019-04-01T01:09:06.518Z,2.07
2019-04-01T01:11:37.321Z,1.70
2019-04-01T01:14:07.988Z,1.90
2019-04-01T01:16:38.689Z,2.20
2019-04-01T01:19:09.311Z,2.23
2019-04-01T01:21:39.883Z,2.23
2019-04-01T01:24:10.509Z,2.30
2019-04-01T01:26:41.104Z,1.83
2019-04-01T01:29:18.207Z,1.43
2019-04-01T01:31:48.817Z,1.90
2019-04-01T01:34:19.485Z,2.00
2019-04-01T01:36:50.262Z,1.90
2019-04-01T01:39:21.836Z,1.83
2019-04-01T01:41:52.432Z,1.83
2019-04-01T01:44:23.093Z,1.60
2019-04-01T01:47:10.604Z,2.30
2019-04-01T01:50:01.916Z,1.87
2019-04-01T01:52:42.875Z,1.70
2019-04-01T01:55:15.620Z,1.93
2019-04-01T01:57:46.337Z,2.30
2019-04-01T02:00:25.651Z,1.60
2019-04-01T02:03:00.257Z,1.83
2019-04-01T02:05:31.937Z,2.20
2019-04-01T02:08:02.581Z,1.60
2019-04-01T02:10:33.127Z,1.70
2019-04-01T02:13:03.804Z,1.87
2019-04-01T02:15:34.718Z,1.30
2019-04-01T02:18:05.299Z,1.67
2019-04-01T02:20:36.014Z,2.37
2019-04-01T02:23:07.809Z,1.57
2019-04-01T02:25:44.418Z,2.00
2019-04-01T02:28:15.383Z,2.20
2019-04-01T02:30:45.994Z,1.97
2019-04-01T02:33:16.669Z,1.67
2019-04-01T02:35:59.527Z,1.87
2019-04-01T02:38:30.487Z,1.83
2019-04-01T02:41:02.389Z,2.17
2019-04-01T02:43:33.052Z,1.70
2019-04-01T02:46:03.737Z,1.93
2019-04-01T02:48:34.303Z,1.80
2019-04-01T02:51:04.983Z,1.77
2019-04-01T02:53:35.572Z,1.83
2019-04-01T02:56:07.220Z,1.40
2019-04-01T02:58:37.881Z,2.13
2019-04-01T03:01:08.533Z,1.80
2019-04-01T03:03:39.266Z,1.97
2019-04-01T03:06:22.064Z,1.90
2019-04-01T03:08:53.903Z,1.70
2019-04-01T03:11:24.489Z,1.97
2019-04-01T03:13:55.082Z,1.80
2019-04-01T03:16:25.805Z,2.00
2019-04-01T03:19:08.198Z,2.50
2019-04-01T03:21:38.923Z,1.63
2019-04-01T03:24:09.516Z,1.90
2019-04-01T03:26:40.120Z,1.60
2019-04-01T03:29:10.754Z,1.90
2019-04-01T03:31:41.321Z,2.20
2019-04-01T03:34:12.102Z,2.60
2019-04-01T03:36:50.933Z,1.87
2019-04-01T03:39:27.226Z,1.60
2019-04-01T03:41:57.982Z,1.70
2019-04-01T03:44:48.387Z,1.57
2019-04-01T03:47:19.032Z,1.77
2019-04-01T03:49:51.780Z,1.90
2019-04-01T03:52:22.864Z,2.00
2019-04-01T03:54:59.282Z,1.80
2019-04-01T03:57:30.206Z,1.80
2019-04-01T04:00:00.886Z,1.90
2019-04-01T04:02:31.721Z,1.90
2019-04-01T04:05:08.066Z,2.00
2019-04-01T04:07:38.782Z,1.90
2019-04-01T04:10:15.587Z,2.20
2019-04-01T04:12:46.135Z,1.90
2019-04-01T04:15:18.847Z,2.20
2019-04-01T04:17:49.535Z,1.97
2019-04-01T04:20:20.352Z,2.17
2019-04-01T04:23:02.415Z,1.90
2019-04-01T04:25:33.055Z,2.37
2019-04-01T04:28:04.203Z,1.90
2019-04-01T04:30:35.051Z,2.00
2019-04-01T04:33:07.859Z,2.43
2019-04-01T04:36:01.327Z,2.00
2019-04-01T04:38:31.939Z,2.60
2019-04-01T04:41:02.615Z,3.10
2019-04-01T04:43:36.286Z,4.03
2019-04-01T04:46:06.979Z,4.50
2019-04-01T04:48:39.879Z,5.90
2019-04-01T04:51:10.444Z,7.27
2019-04-01T04:53:44.896Z,8.17
2019-04-01T04:56:15.541Z,8.37
2019-04-01T04:58:46.307Z,9.27
2019-04-01T05:01:17.101Z,9.80
2019-04-01T05:03:47.780Z,10.23
2019-04-01T05:06:29.173Z,8.77
2019-04-01T05:08:59.908Z,8.13
2019-04-01T05:11:35.840Z,6.33
2019-04-01T05:14:06.430Z,6.50
2019-04-01T05:17:00.270Z,5.57
2019-04-01T05:19:30.990Z,4.10
2019-04-01T05:22:01.962Z,4.10
2019-04-01T05:24:42.663Z,3.80
2019-04-01T05:27:14.334Z,3.30
2019-04-01T05:29:45.882Z,3.00
2019-04-01T05:32:17.549Z,3.30
2019-04-01T05:34:49.805Z,3.30
2019-04-01T05:37:28.930Z,2.73
2019-04-01T05:39:59.719Z,2.87
2019-04-01T05:42:33.467Z,3.20
2019-04-01T05:45:05.737Z,2.80
2019-04-01T05:47:38.035Z,2.57
2019-04-01T05:50:08.830Z,3.10
2019-04-01T05:52:39.541Z,2.87
2019-04-01T05:55:24.089Z,2.47
2019-04-01T05:57:54.720Z,3.07
2019-04-01T06:00:47.153Z,3.00
2019-04-01T06:03:17.840Z,3.07
2019-04-01T06:05:48.535Z,2.53
2019-04-01T06:08:24.556Z,2.67
2019-04-01T06:10:55.224Z,3.30
2019-04-01T06:13:34.020Z,2.67
2019-04-01T06:16:28.528Z,2.53
2019-04-01T06:18:59.205Z,3.03
2019-04-01T06:21:29.879Z,3.13
2019-04-01T06:24:00.873Z,3.33
2019-04-01T06:26:31.639Z,2.80
2019-04-01T06:29:02.354Z,2.73
2019-04-01T06:31:33.143Z,2.70
2019-04-01T06:34:04.029Z,2.60
2019-04-01T06:36:34.676Z,2.67
2019-04-01T06:39:07.146Z,2.57
2019-04-01T06:41:38.169Z,2.63
2019-04-01T06:44:12.095Z,3.00
2019-04-01T06:46:43.152Z,3.10
2019-04-01T06:49:14.805Z,2.80
2019-04-01T06:51:45.379Z,2.90
2019-04-01T06:54:23.672Z,3.10
2019-04-01T06:56:54.720Z,3.40
2019-04-01T06:59:25.385Z,2.90
2019-04-01T07:02:05.186Z,2.80
2019-04-01T07:04:36.024Z,2.77
2019-04-01T07:07:27.617Z,2.93
2019-04-01T07:09:58.269Z,3.27
2019-04-01T07:12:28.938Z,2.93
2019-04-01T07:15:05.275Z,3.03
2019-04-01T07:17:37.151Z,3.70
2019-04-01T07:20:08.915Z,3.10
2019-04-01T07:22:39.843Z,3.63
2019-04-01T07:25:15.634Z,3.07
2019-04-01T07:27:46.282Z,3.00
2019-04-01T07:30:28.019Z,2.80
2019-04-01T07:32:58.679Z,3.07
2019-04-01T07:35:39.185Z,3.63
2019-04-01T07:38:09.897Z,3.20
2019-04-01T07:40:42.935Z,4.00
2019-04-01T07:43:15.105Z,3.80
2019-04-01T07:45:45.991Z,3.60
2019-04-01T07:48:16.858Z,3.50
2019-04-01T07:50:47.492Z,3.30
2019-04-01T07:53:18.227Z,3.50
2019-04-01T07:55:48.978Z,3.70
2019-04-01T07:58:20.745Z,3.60
2019-04-01T08:00:53.422Z,3.30
2019-04-01T08:03:29.855Z,3.10
2019-04-01T08:06:06.430Z,2.87
2019-04-01T08:08:37.139Z,3.50
2019-04-01T08:11:07.811Z,3.17
2019-04-01T08:13:52.715Z,3.70
2019-04-01T08:16:24.626Z,3.93
2019-04-01T08:18:55.296Z,3.07
2019-04-01T08:21:25.949Z,3.80
2019-04-01T08:24:06.099Z,3.20
2019-04-01T08:26:36.895Z,3.83
2019-04-01T08:29:07.537Z,3.17
2019-04-01T08:31:42.294Z,3.70
2019-04-01T08:34:12.929Z,3.23
2019-04-01T08:36:43.679Z,3.53
2019-04-01T08:39:26.513Z,3.40
2019-04-01T08:41:57.176Z,3.60
2019-04-01T08:44:27.828Z,3.23
2019-04-01T08:46:58.519Z,3.60
2019-04-01T08:49:29.670Z,3.53
2019-04-01T08:52:00.291Z,3.40
2019-04-01T08:54:31.157Z,3.50
2019-04-01T08:57:06.802Z,3.03
2019-04-01T08:59:56.126Z,3.50
2019-04-01T09:02:25.402Z,3.37
2019-04-01T09:04:56.273Z,3.63
2019-04-01T09:07:27.973Z,3.10
2019-04-01T09:10:05.219Z,3.63
2019-04-01T09:12:36.437Z,3.40
2019-04-01T09:15:09.919Z,3.77
2019-04-01T09:17:40.827Z,3.40
2019-04-01T09:20:15.837Z,3.47
2019-04-01T09:22:46.499Z,3.37
2019-04-01T09:25:17.118Z,4.17
2019-04-01T09:27:47.786Z,3.90
2019-04-01T09:30:18.962Z,3.80
2019-04-01T09:32:50.167Z,3.60
2019-04-01T09:35:22.890Z,4.50
2019-04-01T09:37:53.615Z,4.13
2019-04-01T09:40:26.192Z,4.53
2019-04-01T09:42:56.877Z,4.10
2019-04-01T09:45:27.508Z,3.97
2019-04-01T09:47:58.137Z,3.87
2019-04-01T09:50:28.701Z,5.03
2019-04-01T09:52:59.292Z,4.40
2019-04-01T09:55:29.898Z,4.90
2019-04-01T09:58:00.476Z,3.97
2019-04-01T10:00:31.129Z,4.67
2019-04-01T10:03:01.820Z,4.57
2019-04-01T10:05:33.680Z,4.87
2019-04-01T10:08:04.380Z,4.53
2019-04-01T10:10:35.153Z,4.80
2019-04-01T10:13:06.012Z,4.97
2019-04-01T10:15:36.756Z,5.60
2019-04-01T10:18:10.742Z,5.80
2019-04-01T10:20:41.399Z,5.93
2019-04-01T10:23:13.206Z,5.40
2019-04-01T10:25:44.060Z,5.37
2019-04-01T10:28:14.970Z,6.23
2019-04-01T10:30:45.702Z,5.70
2019-04-01T10:33:18.380Z,6.43
2019-04-01T10:35:49.366Z,7.03
2019-04-01T10:38:26.973Z,6.93
2019-04-01T10:40:57.642Z,5.97
2019-04-01T10:43:28.307Z,6.00
2019-04-01T10:45:58.967Z,6.37
2019-04-01T10:48:29.649Z,6.87
2019-04-01T10:51:00.413Z,6.93
2019-04-01T10:53:31.141Z,6.73
2019-04-01T10:56:02.916Z,6.73
2019-04-01T10:58:34.548Z,6.20
2019-04-01T11:01:07.205Z,7.10
2019-04-01T11:03:42.827Z,6.97
2019-04-01T11:06:13.468Z,7.63
2019-04-01T11:08:48.886Z,7.33
2019-04-01T11:11:19.557Z,6.77
2019-04-01T11:13:51.942Z,7.37
2019-04-01T11:16:23.877Z,7.10
2019-04-01T11:19:06.949Z,7.77
2019-04-01T11:21:37.667Z,7.30
2019-04-01T11:24:08.448Z,7.57
2019-04-01T11:26:39.033Z,7.67
2019-04-01T11:29:09.676Z,7.60
2019-04-01T11:31:50.225Z,8.43
2019-04-01T11:34:27.431Z,6.90
2019-04-01T11:37:26.149Z,7.27
2019-04-01T11:39:56.860Z,7.87
2019-04-01T11:42:27.394Z,8.17
2019-04-01T11:44:58.259Z,7.23
2019-04-01T11:47:28.891Z,7.57
2019-04-01T11:50:06.098Z,7.00
2019-04-01T11:52:38.056Z,6.70
2019-04-01T11:55:11.277Z,7.50
2019-04-01T11:57:41.959Z,7.27
2019-04-01T12:00:15.510Z,7.23
2019-04-01T12:02:46.523Z,7.53
2019-04-01T12:05:17.217Z,6.93
2019-04-01T12:07:47.828Z,7.33
2019-04-01T12:10:18.434Z,7.60
2019-04-01T12:12:49.077Z,7.57
2019-04-01T12:15:19.906Z,6.83
2019-04-01T12:17:50.488Z,7.57
2019-04-01T12:20:21.341Z,6.83
2019-04-01T12:22:51.964Z,6.60
2019-04-01T12:25:30.725Z,7.60
2019-04-01T12:28:01.723Z,7.93
2019-04-01T12:30:32.340Z,8.27
2019-04-01T12:33:26.272Z,7.20
2019-04-01T12:35:57.211Z,8.00
2019-04-01T12:38:39.075Z,6.83
2019-04-01T12:41:10.167Z,7.53
2019-04-01T12:43:40.782Z,8.23
2019-04-01T12:46:11.760Z,7.60
2019-04-01T12:48:42.450Z,8.27
2019-04-01T12:51:16.868Z,7.53
2019-04-01T12:53:56.537Z,7.50
2019-04-01T12:56:29.597Z,7.83
2019-04-01T12:59:00.354Z,7.10
2019-04-01T13:01:49.672Z,7.27
2019-04-01T13:04:20.661Z,7.20
2019-04-01T13:06:51.687Z,8.03
2019-04-01T13:09:22.770Z,8.53
2019-04-01T13:11:53.437Z,7.27
2019-04-01T13:14:27.623Z,8.50
2019-04-01T13:17:08.610Z,7.63
2019-04-01T13:19:39.301Z,6.93
2019-04-01T13:22:20.870Z,7.40
2019-04-01T13:24:51.607Z,6.93
2019-04-01T13:27:22.571Z,7.33
2019-04-01T13:29:56.526Z,7.10
2019-04-01T13:32:29.251Z,8.33
2019-04-01T13:34:59.833Z,7.77
2019-04-01T13:40:40.608Z,7.73
2019-04-01T13:43:11.488Z,7.50
2019-04-01T13:45:50.155Z,7.17
2019-04-01T13:48:26.228Z,7.93
2019-04-01T13:50:56.900Z,8.00
2019-04-01T13:53:28.561Z,7.50
2019-04-01T13:55:59.433Z,7.90
2019-04-01T13:58:29.942Z,7.90
2019-04-01T14:01:00.969Z,7.97
2019-04-01T14:03:31.691Z,7.33
2019-04-01T14:06:02.462Z,7.57
2019-04-01T14:08:33.225Z,7.73
2019-04-01T14:11:05.980Z,7.37
2019-04-01T14:13:47.981Z,7.17
2019-04-01T14:16:23.078Z,7.50
2019-04-01T14:19:00.724Z,7.53
2019-04-01T14:21:36.294Z,7.20
2019-04-01T14:24:07.188Z,7.27
2019-04-01T14:26:38.047Z,7.30
2019-04-01T14:29:20.799Z,7.23
2019-04-01T14:31:52.742Z,7.33
2019-04-01T14:34:24.449Z,7.70
2019-04-01T14:36:55.108Z,7.10
2019-04-01T14:39:25.853Z,8.00
2019-04-01T14:41:57.845Z,7.20
2019-04-01T14:44:34.715Z,7.07
2019-04-01T14:47:08.844Z,7.67
2019-04-01T14:49:37.653Z,7.27
2019-04-01T14:52:08.416Z,7.20
2019-04-01T14:54:39.070Z,7.13
2019-04-01T14:57:09.775Z,7.30
2019-04-01T14:59:40.445Z,6.93
2019-04-01T15:02:11.163Z,7.07
2019-04-01T15:04:41.775Z,7.03
2019-04-01T15:07:14.368Z,6.83
2019-04-01T15:09:56.131Z,7.07
2019-04-01T15:12:26.979Z,6.73
2019-04-01T15:15:07.375Z,6.63
2019-04-01T15:17:42.744Z,7.20
2019-04-01T15:20:17.328Z,7.20
2019-04-01T15:22:58.448Z,7.23
2019-04-01T15:25:45.477Z,6.80
2019-04-01T15:28:21.766Z,6.47
2019-04-01T15:30:59.015Z,7.00
2019-04-01T15:33:30.837Z,7.00
2019-04-01T15:36:04.261Z,7.10
2019-04-01T15:38:35.198Z,6.83
2019-04-01T15:41:05.802Z,7.70
2019-04-01T15:43:36.493Z,6.57
2019-04-01T15:46:08.526Z,6.40
2019-04-01T15:48:42.217Z,7.20
2019-04-01T15:51:18.287Z,7.37
2019-04-01T15:53:53.323Z,6.77
2019-04-01T15:56:25.044Z,6.97
2019-04-01T15:58:55.769Z,6.07
2019-04-01T16:01:30.283Z,6.63
2019-04-01T16:04:03.280Z,6.80
2019-04-01T16:06:38.205Z,6.93
2019-04-01T16:09:08.862Z,6.77
2019-04-01T16:11:39.545Z,6.40
2019-04-01T16:14:11.560Z,6.40
2019-04-01T16:16:45.926Z,6.63
2019-04-01T16:19:29.420Z,6.47
2019-04-01T16:22:00.249Z,6.10
2019-04-01T16:24:59.725Z,7.07
2019-04-01T16:27:30.471Z,6.30
2019-04-01T16:30:07.814Z,6.20
2019-04-01T16:32:41.892Z,6.73
2019-04-01T16:35:12.864Z,6.70
2019-04-01T16:37:44.892Z,6.80
2019-04-01T16:40:18.420Z,6.50
2019-04-01T16:43:00.646Z,7.17
2019-04-01T16:45:36.507Z,6.10
2019-04-01T16:48:08.489Z,6.63
2019-04-01T16:50:41.878Z,6.33
2019-04-01T16:53:16.875Z,5.80
2019-04-01T16:55:49.037Z,5.73
2019-04-01T16:58:24.250Z,6.23
2019-04-01T17:00:54.979Z,6.53
2019-04-01T17:03:37.876Z,6.33
2019-04-01T17:06:10.512Z,6.40
2019-04-01T17:08:41.152Z,7.10
2019-04-01T17:11:17.436Z,6.87
2019-04-01T17:13:55.658Z,6.40
2019-04-01T17:16:26.679Z,6.30
2019-04-01T17:19:00.566Z,6.50
2019-04-01T17:21:35.217Z,6.40
2019-04-01T17:24:05.953Z,6.73
2019-04-01T17:27:07.508Z,6.10
2019-04-01T17:29:38.203Z,6.60
2019-04-01T17:32:09.572Z,6.20
2019-04-01T17:34:41.167Z,6.13
2019-04-01T17:37:13.362Z,6.00
2019-04-01T17:39:44.025Z,5.93
2019-04-01T17:42:16.986Z,6.67
2019-04-01T17:44:50.948Z,5.50
2019-04-01T17:47:32.823Z,6.40
2019-04-01T17:50:03.812Z,7.10
2019-04-01T17:52:35.965Z,6.40
2019-04-01T17:55:08.673Z,6.00
2019-04-01T17:57:43.329Z,6.30
2019-04-01T18:00:28.919Z,6.07
2019-04-01T18:03:19.945Z,6.17
2019-04-01T18:05:50.766Z,5.90
2019-04-01T18:08:21.540Z,5.63
2019-04-01T18:10:52.223Z,6.20
2019-04-01T18:13:32.372Z,6.40
2019-04-01T18:16:07.151Z,6.80
2019-04-01T18:18:43.762Z,6.70
2019-04-01T18:21:14.410Z,6.83
2019-04-01T18:23:45.046Z,6.27
2019-04-01T18:26:15.750Z,6.00
2019-04-01T18:28:47.524Z,5.90
2019-04-01T18:31:20.327Z,6.37
2019-04-01T18:33:56.455Z,5.83
2019-04-01T18:36:24.693Z,5.70
2019-04-01T18:38:56.441Z,5.87
2019-04-01T18:41:27.270Z,5.50
2019-04-01T18:44:03.023Z,5.83
2019-04-01T18:46:47.997Z,6.53
2019-04-01T18:49:19.645Z,5.40
2019-04-01T18:51:51.344Z,5.70
2019-04-01T18:54:22.309Z,6.10
2019-04-01T18:56:54.422Z,5.77
2019-04-01T18:59:25.809Z,5.90
2019-04-01T19:01:57.746Z,5.63
2019-04-01T19:04:29.710Z,5.77
2019-04-01T19:07:05.641Z,5.53
2019-04-01T19:09:36.319Z,6.20
2019-04-01T19:12:09.148Z,6.63
2019-04-01T19:14:41.178Z,5.73
2019-04-01T19:17:14.140Z,6.27
2019-04-01T19:19:48.666Z,6.30
2019-04-01T19:22:29.046Z,6.03
2019-04-01T19:25:03.305Z,5.90
2019-04-01T19:27:43.088Z,6.17
2019-04-01T19:30:14.916Z,6.30
2019-04-01T19:32:48.059Z,7.13
2019-04-01T19:35:24.093Z,6.13
2019-04-01T19:37:56.369Z,6.97
2019-04-01T19:40:31.105Z,5.80
2019-04-01T19:43:03.560Z,6.60
2019-04-01T19:45:34.440Z,6.30
2019-04-01T19:48:06.109Z,5.97
2019-04-01T19:50:36.824Z,6.23
2019-04-01T19:53:08.464Z,6.07
2019-04-01T19:55:44.006Z,6.70
2019-04-01T19:58:14.608Z,6.40
2019-04-01T20:00:47.348Z,6.17
2019-04-01T20:03:18.131Z,6.47
2019-04-01T20:05:49.937Z,6.43
2019-04-01T20:08:22.112Z,6.63
2019-04-01T20:10:54.923Z,6.90
2019-04-01T20:13:25.595Z,6.43
2019-04-01T20:15:58.210Z,6.37
2019-04-01T20:18:29.953Z,6.40
2019-04-01T20:21:00.663Z,6.73
2019-04-01T20:23:32.368Z,6.20
2019-04-01T20:26:03.153Z,7.23
2019-04-01T20:28:41.374Z,7.07
2019-04-01T20:31:18.161Z,6.80
2019-04-01T20:33:49.299Z,6.57
2019-04-01T20:36:28.502Z,7.30
2019-04-01T20:38:55.259Z,6.57
2019-04-01T20:41:26.766Z,6.20
2019-04-01T20:43:57.345Z,6.93
2019-04-01T20:46:28.230Z,6.77
2019-04-01T20:49:02.014Z,7.07
2019-04-01T20:51:39.098Z,7.37
2019-04-01T20:54:09.788Z,6.30
2019-04-01T20:56:40.549Z,7.20
2019-04-01T20:59:11.249Z,6.93
2019-04-01T21:01:42.197Z,7.00
2019-04-01T21:04:22.091Z,7.03
2019-04-01T21:06:52.820Z,6.43
2019-04-01T21:09:23.396Z,7.07
2019-04-01T21:11:54.200Z,7.23
2019-04-01T21:14:24.879Z,6.73
2019-04-01T21:16:56.537Z,7.90
2019-04-01T21:19:27.235Z,6.97
2019-04-01T21:21:57.873Z,6.57
2019-04-01T21:24:28.548Z,6.63
2019-04-01T21:26:59.231Z,7.60
2019-04-01T21:29:29.934Z,7.80
2019-04-01T21:32:00.584Z,6.57
2019-04-01T21:34:31.205Z,7.53
2019-04-01T21:37:03.449Z,8.27
2019-04-01T21:39:34.097Z,9.07
2019-04-01T21:42:04.775Z,8.30
2019-04-01T21:44:35.363Z,7.83
2019-04-01T21:47:07.115Z,8.20
2019-04-01T21:49:37.816Z,8.40
2019-04-01T21:52:08.494Z,8.17
2019-04-01T21:54:39.080Z,7.77
2019-04-01T21:57:11.672Z,7.77
2019-04-01T21:59:42.188Z,7.10
2019-04-01T22:02:12.932Z,8.17
2019-04-01T22:04:43.588Z,7.90
2019-04-01T22:07:14.369Z,8.17
2019-04-01T22:09:44.943Z,7.10
2019-04-01T22:12:15.604Z,8.13
2019-04-01T22:14:50.557Z,7.50
2019-04-01T22:17:21.044Z,7.47
2019-04-01T22:19:51.653Z,8.60
2019-04-01T22:22:22.341Z,8.10
2019-04-01T22:24:53.015Z,7.50
2019-04-01T22:27:24.743Z,8.17
2019-04-01T22:29:55.483Z,8.13
2019-04-01T22:32:26.052Z,8.50
2019-04-01T22:35:08.599Z,8.40
2019-04-01T22:37:39.476Z,9.10
2019-04-01T22:40:17.032Z,8.20
2019-04-01T22:42:47.679Z,8.53
2019-04-01T22:45:29.439Z,8.40
2019-04-01T22:48:00.057Z,7.83
2019-04-01T22:50:30.673Z,9.03
2019-04-01T22:53:01.242Z,8.70
2019-04-01T22:55:32.890Z,9.33
2019-04-01T22:58:03.635Z,8.60
2019-04-01T23:00:40.420Z,8.83
2019-04-01T23:03:20.606Z,9.13
2019-04-01T23:05:51.289Z,9.10
2019-04-01T23:08:21.863Z,9.90
2019-04-01T23:10:56.300Z,9.43
2019-04-01T23:13:29.920Z,9.53
2019-04-01T23:16:07.389Z,9.63
2019-04-01T23:18:39.163Z,9.33
2019-04-01T23:21:09.727Z,9.43
2019-04-01T23:23:40.349Z,10.20
2019-04-01T23:26:24.085Z,9.73
2019-04-01T23:28:54.700Z,9.37
2019-04-01T23:31:25.315Z,9.97
2019-04-01T23:33:56.874Z,9.77
2019-04-01T23:36:27.636Z,10.40
2019-04-01T23:38:58.215Z,9.97
2019-04-01T23:41:47.202Z,10.27
2019-04-01T23:44:17.842Z,10.40
2019-04-01T23:46:48.465Z,10.50
2019-04-01T23:49:19.046Z,10.00
2019-04-01T23:51:55.754Z,10.57
2019-04-01T23:54:26.322Z,10.40
2019-04-01T23:56:56.914Z,10.17
2019-04-01T23:59:27.485Z,10.10
